| time (UTC) | temp C | wind direction | speed KPH | gust KPH | rain 1hr cm | rain 24hr cm | rain mn cm | humidity % | barometer mb |
| 20260903033110 | 23 | 0.0 | 0.0 | 0.00 | 0.00 | 0.00 | 99 | 1014.8 | |
| 20260903030109 | 24 | 0.0 | 0.0 | 0.00 | 0.00 | 0.00 | 99 | 1014.9 | |
| 20260902221705 | 31 | 270 | 6.4 | 8.0 | 0.00 | 0.00 | 0.00 | 81 | 1014.0 |
| 20260902191721 | -17 | 203 | 11.3 | 11.3 | 0.00 | 0.00 | 0.00 | ||
| 20260902175123 | 31 | 226 | 16.1 | 19.3 | 0.00 | 0.00 | 0.00 | 83 | 1015.2 |
| 20260902174545 | 31 | 12.9 | 12.9 | 0.00 | 0.00 | 0.00 | 80 | 1015.4 | |
| 20260902162718 | 30 | 6.4 | 6.4 | 0.00 | 0.00 | 0.00 | 87 | 1015.3 | |
| 20260902161604 | -17 | 180 | 6.4 | 8.0 | 0.00 | 0.00 | 0.00 | ||
| 20260902160545 | 30 | 4.8 | 4.8 | 0.00 | 0.00 | 0.00 | 83 | 1015.5 | |
| 20260902160141 | 30 | 9.7 | 9.7 | 0.00 | 0.00 | 0.00 | 87 | 1015.6 | |
| 20260902155256 | 30 | 6.4 | 6.4 | 0.00 | 0.00 | 0.00 | 87 | 1015.7 | |
| 20260902150755 | 28 | 180 | 4.8 | 6.4 | 0.00 | 0.00 | 0.00 | 91 | 1015.8 |
| 20260902145736 | 28 | 180 | 4.8 | 4.8 | 0.00 | 0.00 | 0.00 | 91 | 1015.9 |
| 20260902125814 | 24 | 0.0 | 0.0 | 0.00 | 0.00 | 0.00 | 99 | 1016.8 | |
| 20260902115428 | -17 | 225 | 6.4 | 6.4 | 0.00 | 0.00 | 0.00 | ||
| 20260902073102 | 22 | 203 | 3.2 | 3.2 | 0.00 | 0.00 | 0.00 | 99 | 1015.6 |
| 20260902072104 | 22 | 0.0 | 0.0 | 0.00 | 0.00 | 0.00 | 99 | 1015.6 | |
| 20260902071313 | 22 | 0.0 | 0.0 | 0.00 | 0.00 | 0.00 | 99 | 1015.7 | |
| 20260902064639 | 23 | 0.0 | 0.0 | 0.00 | 0.00 | 0.00 | 99 | 1015.7 | |
| 20260902063524 | 23 | 203 | 1.6 | 3.2 | 0.00 | 0.00 | 0.00 | 99 | 1015.9 |